Time;durP1;ratioP1;P1;durP2;ratioP2;P2;SDS_P1;SDS_P2;PMS_P1;PMS_P2;Temp;Humidity;BMP_temperature;BMP_pressure;BME280_temperature;BME280_humidity;BME280_pressure;Samples;Min_cycle;Max_cycle;Signal;HPM_P1;HPM_P2
2023/06/29 00:00:59;;;;;;;;;;;;;;;-140.72;100.00;52492.31;4988638;28;19925;-69
2023/06/29 00:03:25;;;;;;;;;;;;;;;-140.72;100.00;52476.09;4980820;28;19949;-69
2023/06/29 00:05:51;;;;;;;;;;;;;;;-140.72;100.00;52494.34;4991160;28;19984;-69
2023/06/29 00:08:16;;;;;;;;;;;;;;;-140.72;100.00;52463.91;4972818;28;20009;-69
2023/06/29 00:10:42;;;;;;;;;;;;;;;-140.72;100.00;52455.78;4975859;28;19937;-69
2023/06/29 00:13:07;;;;;;;;;;;;;;;-140.72;100.00;52514.63;4991567;28;20230;-69
2023/06/29 00:15:32;;;;;;;;;;;;;;;-140.72;100.00;52465.94;4991030;28;19922;-69
2023/06/29 00:17:59;;;;;;;;;;;;;;;-140.72;100.00;52463.91;4989911;28;19922;-68
2023/06/29 00:20:28;;;;;;;;;;;;;;;-140.72;100.00;52439.56;4987867;28;19973;-68
2023/06/29 00:22:53;;;;;;;;;;;;;;;-140.72;100.00;52470.00;4993313;28;19922;-69
2023/06/29 00:25:19;;;;;;;;;;;;;;;-140.72;100.00;52439.56;4978873;28;20286;-68
2023/06/29 00:27:44;;;;;;;;;;;;;;;-140.72;100.00;52449.72;4993049;28;19922;-69
2023/06/29 00:30:09;;;;;;;;;;;;;;;-140.72;100.00;52476.09;4978085;28;19961;-69
2023/06/29 00:32:34;;;;;;;;;;;;;;;-140.72;100.00;52474.06;4980180;28;19929;-68
2023/06/29 00:35:00;;;;;;;;;;;;;;;-140.72;100.00;52465.94;4990554;28;20052;-69
2023/06/29 00:37:25;;;;;;;;;;;;;;;-140.72;100.00;52453.75;4993046;28;20394;-69
2023/06/29 00:39:50;;;;;;;;;;;;;;;-140.72;100.00;52453.75;4976674;28;19918;-70
2023/06/29 00:42:16;;;;;;;;;;;;;;;-140.72;100.00;52474.06;4986497;28;19922;-69
2023/06/29 00:44:41;;;;;;;;;;;;;;;-140.72;100.00;52461.88;4994201;28;20039;-70
2023/06/29 00:47:07;;;;;;;;;;;;;;;-140.72;100.00;52484.19;4993697;28;20268;-70
2023/06/29 00:49:33;;;;;;;;;;;;;;;-140.72;100.00;52459.84;4996736;28;20070;-70
2023/06/29 00:51:58;;;;;;;;;;;;;;;-140.72;100.00;52476.09;4987278;28;19958;-69
2023/06/29 00:54:24;;;;;;;;;;;;;;;-140.72;100.00;52455.78;4987235;28;20004;-69
2023/06/29 00:56:50;;;;;;;;;;;;;;;-140.72;100.00;52459.84;4989533;28;19951;-68
2023/06/29 00:59:15;;;;;;;;;;;;;;;-140.72;100.00;52500.44;4988827;28;19952;-68
2023/06/29 01:01:41;;;;;;;;;;;;;;;-140.72;100.00;52474.06;4982242;28;19929;-68
2023/06/29 01:04:07;;;;;;;;;;;;;;;-140.72;100.00;52467.97;4992666;28;19922;-68
2023/06/29 01:06:37;;;;;;;;;;;;;;;-140.72;100.00;52496.38;4974962;28;19921;-68
2023/06/29 01:09:06;;;;;;;;;;;;;;;-140.72;100.00;52496.38;4976148;28;20009;-68
2023/06/29 01:11:40;;;;;;;;;;;;;;;-140.72;100.00;52439.56;4989988;28;19987;-68
2023/06/29 01:14:08;;;;;;;;;;;;;;;-140.72;100.00;52484.19;4994322;28;19918;-69
2023/06/29 01:16:34;;;;;;;;;;;;;;;-140.72;100.00;52496.38;4993178;28;20033;-68
2023/06/29 01:19:01;;;;;;;;;;;;;;;-140.72;100.00;52490.28;4992011;28;19918;-69
2023/06/29 01:21:28;;;;;;;;;;;;;;;-140.72;100.00;52486.22;4985009;28;19993;-69
2023/06/29 01:23:55;;;;;;;;;;;;;;;-140.72;100.00;52504.50;4990305;28;19917;-69
2023/06/29 01:26:20;;;;;;;;;;;;;;;-140.72;100.00;52496.38;4990256;28;19983;-69
2023/06/29 01:28:48;;;;;;;;;;;;;;;-140.72;100.00;52536.97;4991039;28;19929;-69
2023/06/29 01:31:14;;;;;;;;;;;;;;;-140.72;100.00;52472.03;4993635;28;20064;-69
2023/06/29 01:33:39;;;;;;;;;;;;;;;-140.72;100.00;52480.16;4975263;28;19957;-69
2023/06/29 01:36:17;;;;;;;;;;;;;;;-140.72;100.00;52500.44;4993325;28;19929;-69
2023/06/29 01:38:53;;;;;;;;;;;;;;;-140.72;100.00;52496.38;4991949;28;20020;-69
2023/06/29 01:41:18;;;;;;;;;;;;;;;-140.72;100.00;52449.72;4986854;28;19922;-69
2023/06/29 01:43:44;;;;;;;;;;;;;;;-140.72;100.00;52502.47;4982557;28;19967;-69
2023/06/29 01:46:10;;;;;;;;;;;;;;;-140.72;100.00;52510.59;4991985;28;19925;-69
2023/06/29 01:48:36;;;;;;;;;;;;;;;-140.72;100.00;52455.78;4992016;28;19922;-69
2023/06/29 01:51:01;;;;;;;;;;;;;;;-140.72;100.00;52465.94;4986155;28;19981;-69
2023/06/29 01:53:26;;;;;;;;;;;;;;;-140.72;100.00;52461.88;4984054;28;19927;-69
2023/06/29 01:55:52;;;;;;;;;;;;;;;-140.72;100.00;52488.25;4988157;28;19921;-69
2023/06/29 01:58:17;;;;;;;;;;;;;;;-140.72;100.00;52498.41;4991793;28;19984;-69
2023/06/29 02:00:42;;;;;;;;;;;;;;;-140.72;100.00;52447.69;4993855;28;19941;-69
2023/06/29 02:03:08;;;;;;;;;;;;;;;-140.72;100.00;52500.44;4985418;28;19984;-69
2023/06/29 02:05:33;;;;;;;;;;;;;;;-140.72;100.00;52522.75;4974958;28;20307;-69
2023/06/29 02:07:58;;;;;;;;;;;;;;;-140.72;100.00;52488.25;4973009;28;19933;-69
2023/06/29 02:10:23;;;;;;;;;;;;;;;-140.72;100.00;52504.50;4993158;28;20017;-69
2023/06/29 02:12:49;;;;;;;;;;;;;;;-140.72;100.00;52474.06;4990823;28;19937;-68
2023/06/29 02:15:14;;;;;;;;;;;;;;;-140.72;100.00;52457.81;4982357;28;19918;-68
2023/06/29 02:17:39;;;;;;;;;;;;;;;-140.72;100.00;52496.38;4972469;28;19929;-68
2023/06/29 02:20:07;;;;;;;;;;;;;;;-140.72;100.00;52476.09;4985992;28;20148;-68
2023/06/29 02:22:32;;;;;;;;;;;;;;;-140.72;100.00;52492.31;4992797;28;19918;-68
2023/06/29 02:24:57;;;;;;;;;;;;;;;-140.72;100.00;52510.59;4989151;28;19922;-68
2023/06/29 02:27:23;;;;;;;;;;;;;;;-140.72;100.00;52461.88;4984114;28;20024;-68
2023/06/29 02:29:48;;;;;;;;;;;;;;;-140.72;100.00;52498.41;4992873;28;20045;-68
2023/06/29 02:32:13;;;;;;;;;;;;;;;-140.72;100.00;52467.97;4995395;28;19976;-68
2023/06/29 02:34:39;;;;;;;;;;;;;;;-140.72;100.00;52482.16;4970010;28;19926;-68
2023/06/29 02:37:05;;;;;;;;;;;;;;;-140.72;100.00;52484.19;4992991;28;20008;-68
2023/06/29 02:39:30;;;;;;;;;;;;;;;-140.72;100.00;52528.84;4987189;28;19968;-68
2023/06/29 02:41:56;;;;;;;;;;;;;;;-140.72;100.00;52492.31;4984640;28;19918;-68
2023/06/29 02:44:21;;;;;;;;;;;;;;;-140.72;100.00;52474.06;4984366;28;19925;-69
2023/06/29 02:46:46;;;;;;;;;;;;;;;-140.72;100.00;52492.31;4993393;28;19918;-68
2023/06/29 02:49:12;;;;;;;;;;;;;;;-140.72;100.00;52486.22;4993469;28;19930;-68
2023/06/29 02:51:37;;;;;;;;;;;;;;;-140.72;100.00;52532.91;4983304;28;19965;-68
2023/06/29 02:54:02;;;;;;;;;;;;;;;-140.72;100.00;52528.84;4983283;28;19917;-68
2023/06/29 02:56:27;;;;;;;;;;;;;;;-140.72;100.00;52526.81;4984310;28;19954;-68
2023/06/29 02:58:53;;;;;;;;;;;;;;;-140.72;100.00;52526.81;4989522;28;20016;-68
2023/06/29 03:01:18;;;;;;;;;;;;;;;-140.72;100.00;52482.16;4976030;28;19929;-68
2023/06/29 03:03:44;;;;;;;;;;;;;;;-140.72;100.00;52490.28;4991133;28;19940;-68
2023/06/29 03:06:09;;;;;;;;;;;;;;;-140.72;100.00;52476.09;4984664;28;19926;-68
2023/06/29 03:08:35;;;;;;;;;;;;;;;-140.72;100.00;52494.34;4988541;28;19925;-68
2023/06/29 03:11:00;;;;;;;;;;;;;;;-140.72;100.00;52514.63;4975747;28;20353;-68
2023/06/29 03:13:25;;;;;;;;;;;;;;;-140.72;100.00;52492.31;4992939;28;19918;-68
2023/06/29 03:15:50;;;;;;;;;;;;;;;-140.72;100.00;52512.59;4977806;28;19918;-68
2023/06/29 03:18:16;;;;;;;;;;;;;;;-140.72;100.00;52500.44;4975780;28;19932;-68
2023/06/29 03:20:41;;;;;;;;;;;;;;;-140.72;100.00;52500.44;4991032;28;20030;-68
2023/06/29 03:23:06;;;;;;;;;;;;;;;-140.72;100.00;52536.97;4992959;28;19949;-68
2023/06/29 03:25:32;;;;;;;;;;;;;;;-140.72;100.00;52528.84;4975161;28;20314;-68
2023/06/29 03:27:57;;;;;;;;;;;;;;;-140.72;100.00;52536.97;4975184;28;19972;-68
2023/06/29 03:30:22;;;;;;;;;;;;;;;-140.72;100.00;52520.72;4980456;28;20021;-68
2023/06/29 03:32:47;;;;;;;;;;;;;;;-140.72;100.00;52506.53;5005156;28;20280;-68
2023/06/29 03:35:13;;;;;;;;;;;;;;;-140.72;100.00;52488.25;4962671;28;19926;-68
2023/06/29 03:37:38;;;;;;;;;;;;;;;-140.72;100.00;52516.66;4979314;28;19996;-68
2023/06/29 03:40:03;;;;;;;;;;;;;;;-140.72;100.00;52504.50;4992842;28;20376;-68
2023/06/29 03:42:29;;;;;;;;;;;;;;;-140.72;100.00;52482.16;4981164;28;19945;-69
2023/06/29 03:44:54;;;;;;;;;;;;;;;-140.72;100.00;52520.72;4987395;28;19925;-68
2023/06/29 03:47:19;;;;;;;;;;;;;;;-140.72;100.00;52526.81;4988573;28;19964;-68
2023/06/29 03:49:44;;;;;;;;;;;;;;;-140.72;100.00;52512.59;4969431;28;19922;-68
2023/06/29 03:52:10;;;;;;;;;;;;;;;-140.72;100.00;52539.00;4992828;28;20360;-68
2023/06/29 03:54:35;;;;;;;;;;;;;;;-140.72;100.00;52522.75;4974292;28;19964;-68
2023/06/29 03:57:01;;;;;;;;;;;;;;;-140.72;100.00;52500.44;4989562;28;19980;-68
2023/06/29 03:59:28;;;;;;;;;;;;;;;-140.72;100.00;52498.41;4996443;28;19922;-68
2023/06/29 04:01:53;;;;;;;;;;;;;;;-140.72;100.00;52502.47;4990700;28;20277;-68
2023/06/29 04:04:18;;;;;;;;;;;;;;;-140.72;100.00;52528.84;4963956;28;19928;-68
2023/06/29 04:06:44;;;;;;;;;;;;;;;-140.72;100.00;52508.56;4995849;28;20383;-68
2023/06/29 04:09:10;;;;;;;;;;;;;;;-140.72;100.00;52502.47;4983879;28;20291;-69
2023/06/29 04:11:35;;;;;;;;;;;;;;;-140.72;100.00;52494.34;4981622;28;19956;-68
2023/06/29 04:14:00;;;;;;;;;;;;;;;-140.72;100.00;52498.41;4993870;28;19918;-68
2023/06/29 04:16:25;;;;;;;;;;;;;;;-140.72;100.00;52492.31;4991895;28;19926;-68
2023/06/29 04:18:51;;;;;;;;;;;;;;;-140.72;100.00;52520.72;4980578;28;19932;-70
2023/06/29 04:21:16;;;;;;;;;;;;;;;-140.72;100.00;52484.19;4998118;28;19945;-71
2023/06/29 04:23:41;;;;;;;;;;;;;;;-140.72;100.00;52522.75;4983428;28;19917;-73
2023/06/29 04:26:07;;;;;;;;;;;;;;;-140.72;100.00;52528.84;5003821;28;19977;-74
2023/06/29 04:28:34;;;;;;;;;;;;;;;-140.72;100.00;52514.63;4995479;28;19922;-74
2023/06/29 04:30:59;;;;;;;;;;;;;;;-140.72;100.00;52508.56;4992703;28;20012;-74
2023/06/29 04:33:24;;;;;;;;;;;;;;;-140.72;100.00;52510.59;4988083;28;20025;-74
2023/06/29 04:35:50;;;;;;;;;;;;;;;-140.72;100.00;52543.03;4972920;28;19929;-74
2023/06/29 04:38:16;;;;;;;;;;;;;;;-140.72;100.00;52530.88;4997047;28;20004;-74
2023/06/29 04:40:42;;;;;;;;;;;;;;;-140.72;100.00;52504.50;4996641;28;19937;-74
2023/06/29 04:46:10;;;;;;;;;;;;;;;-140.72;100.00;52514.63;4986677;28;19926;-75
2023/06/29 04:48:37;;;;;;;;;;;;;;;-140.72;100.00;52506.53;4975336;28;19918;-75
2023/06/29 04:51:06;;;;;;;;;;;;;;;-140.72;100.00;52524.78;4991984;28;19917;-74
2023/06/29 04:53:34;;;;;;;;;;;;;;;-140.72;100.00;52504.50;4995685;28;19929;-69
2023/06/29 04:56:01;;;;;;;;;;;;;;;-140.72;100.00;52494.34;4996214;28;19922;-69
2023/06/29 04:58:26;;;;;;;;;;;;;;;-140.72;100.00;52547.09;4975325;28;20015;-68
2023/06/29 05:00:51;;;;;;;;;;;;;;;-140.72;100.00;52463.91;4990123;28;19962;-68
2023/06/29 05:03:17;;;;;;;;;;;;;;;-140.72;100.00;52528.84;4985769;28;20301;-69
2023/06/29 05:05:44;;;;;;;;;;;;;;;-140.72;100.00;52512.59;4991620;28;19925;-69
2023/06/29 05:08:09;;;;;;;;;;;;;;;-140.72;100.00;52518.69;4994498;28;19930;-68
2023/06/29 05:10:34;;;;;;;;;;;;;;;-140.72;100.00;52512.59;4994761;28;19988;-68
2023/06/29 05:13:00;;;;;;;;;;;;;;;-140.72;100.00;52498.41;4973284;28;19922;-68
2023/06/29 05:15:25;;;;;;;;;;;;;;;-140.72;100.00;52494.34;4991795;28;19918;-68
2023/06/29 05:17:52;;;;;;;;;;;;;;;-140.72;100.00;52532.91;4986135;28;19918;-68
2023/06/29 05:20:18;;;;;;;;;;;;;;;-140.72;100.00;52526.81;4986311;28;19918;-68
2023/06/29 05:22:43;;;;;;;;;;;;;;;-140.72;100.00;52539.00;4977276;28;19921;-69
2023/06/29 05:25:09;;;;;;;;;;;;;;;-140.72;100.00;52502.47;4988864;28;19926;-68
2023/06/29 05:27:34;;;;;;;;;;;;;;;-140.72;100.00;52496.38;4995054;28;19960;-68
2023/06/29 05:30:02;;;;;;;;;;;;;;;-140.72;100.00;52539.00;4993866;28;20334;-68
2023/06/29 05:32:28;;;;;;;;;;;;;;;-140.72;100.00;52512.59;4979059;28;19926;-69
2023/06/29 05:34:55;;;;;;;;;;;;;;;-140.72;100.00;52512.59;4982203;28;19917;-69
2023/06/29 05:37:20;;;;;;;;;;;;;;;-140.72;100.00;52494.34;4989337;28;19972;-69
2023/06/29 05:39:58;;;;;;;;;;;;;;;-140.72;100.00;52532.91;4970788;28;19918;-70
2023/06/29 05:42:26;;;;;;;;;;;;;;;-140.72;100.00;52545.06;4981042;28;19918;-70
2023/06/29 05:44:52;;;;;;;;;;;;;;;-140.72;100.00;52500.44;4985225;28;19925;-71
2023/06/29 05:47:18;;;;;;;;;;;;;;;-140.72;100.00;52500.44;4990838;28;19972;-71
2023/06/29 05:49:51;;;;;;;;;;;;;;;-140.72;100.00;52486.22;4994997;28;19924;-72
2023/06/29 05:52:20;;;;;;;;;;;;;;;-140.72;100.00;52500.44;4973507;28;19928;-72
2023/06/29 05:54:45;;;;;;;;;;;;;;;-140.72;100.00;52508.56;4992087;28;19941;-73
2023/06/29 05:57:12;;;;;;;;;;;;;;;-140.72;100.00;52522.75;4994671;28;20003;-69
2023/06/29 05:59:37;;;;;;;;;;;;;;;-140.72;100.00;52492.31;4991013;28;19917;-69
2023/06/29 06:02:03;;;;;;;;;;;;;;;-140.72;100.00;52510.59;4991298;28;19922;-69
2023/06/29 06:04:28;;;;;;;;;;;;;;;-140.72;100.00;52494.34;4992582;28;19922;-69
2023/06/29 06:06:53;;;;;;;;;;;;;;;-140.72;100.00;52520.72;4982315;28;19980;-69
2023/06/29 06:09:18;;;;;;;;;;;;;;;-140.72;100.00;52502.47;4992838;28;19966;-69
2023/06/29 06:11:44;;;;;;;;;;;;;;;-140.72;100.00;52463.91;4995344;28;19929;-70
2023/06/29 06:14:09;;;;;;;;;;;;;;;-140.72;100.00;52492.31;4994497;28;20020;-69
2023/06/29 06:16:34;;;;;;;;;;;;;;;-140.72;100.00;52482.16;4995041;28;19921;-69
2023/06/29 06:18:59;;;;;;;;;;;;;;;-140.72;100.00;52467.97;4995420;28;19918;-71
2023/06/29 06:21:25;;;;;;;;;;;;;;;-140.72;100.00;52492.31;4989650;28;19949;-71
2023/06/29 06:23:53;;;;;;;;;;;;;;;-140.72;100.00;52472.03;4982522;28;19926;-71
2023/06/29 06:26:18;;;;;;;;;;;;;;;-140.72;100.00;52492.31;4962814;28;19929;-69
2023/06/29 06:28:44;;;;;;;;;;;;;;;-140.72;100.00;52512.59;4984996;28;19922;-69
2023/06/29 06:31:09;;;;;;;;;;;;;;;-140.72;100.00;52463.91;4989915;28;20292;-69
2023/06/29 06:33:34;;;;;;;;;;;;;;;-140.72;100.00;52508.56;4991599;28;19917;-69
2023/06/29 06:36:00;;;;;;;;;;;;;;;-140.72;100.00;52463.91;4988792;28;19918;-69
2023/06/29 06:38:25;;;;;;;;;;;;;;;-140.72;100.00;52472.03;4960866;28;19919;-69
2023/06/29 06:40:51;;;;;;;;;;;;;;;-140.72;100.00;52484.19;4988399;28;19925;-69
2023/06/29 06:43:17;;;;;;;;;;;;;;;-140.72;100.00;52488.25;4991764;28;19986;-69
2023/06/29 06:45:42;;;;;;;;;;;;;;;-140.72;100.00;52461.88;4982108;28;20383;-69
2023/06/29 06:48:08;;;;;;;;;;;;;;;-140.72;100.00;52476.09;4976804;28;19926;-69
2023/06/29 06:50:33;;;;;;;;;;;;;;;-140.72;100.00;52480.16;4981580;28;19921;-69
2023/06/29 06:52:58;;;;;;;;;;;;;;;-140.72;100.00;52506.53;4990644;28;19968;-69
2023/06/29 06:55:23;;;;;;;;;;;;;;;-140.72;100.00;52457.81;4992272;28;19989;-68
2023/06/29 06:57:49;;;;;;;;;;;;;;;-140.72;100.00;52472.03;4989936;28;20307;-69
2023/06/29 07:00:14;;;;;;;;;;;;;;;-140.72;100.00;52461.88;4974626;28;19918;-69
2023/06/29 07:02:39;;;;;;;;;;;;;;;-140.72;100.00;52431.44;4986488;28;19932;-69
2023/06/29 07:05:05;;;;;;;;;;;;;;;-140.72;100.00;52455.78;4972557;28;19929;-69
2023/06/29 07:07:31;;;;;;;;;;;;;;;-140.72;100.00;52457.81;4982477;28;19919;-69
2023/06/29 07:09:56;;;;;;;;;;;;;;;-140.72;100.00;52449.72;4989638;28;19960;-69
2023/06/29 07:12:21;;;;;;;;;;;;;;;-140.72;100.00;52484.19;4982787;28;20368;-69
2023/06/29 07:14:46;;;;;;;;;;;;;;;-140.72;100.00;52457.81;4983848;28;19922;-69
2023/06/29 07:17:11;;;;;;;;;;;;;;;-140.72;100.00;52415.22;4978816;28;19929;-69
2023/06/29 07:19:37;;;;;;;;;;;;;;;-140.72;100.00;52459.84;4992082;28;19917;-69
2023/06/29 07:22:02;;;;;;;;;;;;;;;-140.72;100.00;52463.91;4974174;28;19917;-69
2023/06/29 07:24:27;;;;;;;;;;;;;;;-140.72;100.00;52445.66;4992379;28;20448;-69
2023/06/29 07:26:53;;;;;;;;;;;;;;;-140.72;100.00;52453.75;4980091;28;19948;-69
2023/06/29 07:29:18;;;;;;;;;;;;;;;-140.72;100.00;52467.97;4975043;28;20376;-69
2023/06/29 07:31:43;;;;;;;;;;;;;;;-140.72;100.00;52435.50;4993744;28;20024;-69
2023/06/29 07:34:08;;;;;;;;;;;;;;;-140.72;100.00;52429.41;4994738;28;19978;-69
2023/06/29 07:36:34;;;;;;;;;;;;;;;-140.72;100.00;52427.38;4991821;28;20228;-69
2023/06/29 07:38:59;;;;;;;;;;;;;;;-140.72;100.00;52419.28;4990648;28;19929;-69
2023/06/29 07:41:24;;;;;;;;;;;;;;;-140.72;100.00;52449.72;4991377;28;20000;-69
2023/06/29 07:43:54;;;;;;;;;;;;;;;-140.72;100.00;52455.78;4985962;28;19918;-69
2023/06/29 07:46:19;;;;;;;;;;;;;;;-140.72;100.00;52411.16;4986549;28;19928;-69
2023/06/29 07:48:45;;;;;;;;;;;;;;;-140.72;100.00;52443.63;4981810;28;19922;-69
2023/06/29 07:51:10;;;;;;;;;;;;;;;-140.72;100.00;52415.22;4977061;28;19946;-69
2023/06/29 07:53:36;;;;;;;;;;;;;;;-140.72;100.00;52407.09;4994959;28;19966;-69
2023/06/29 07:56:01;;;;;;;;;;;;;;;-140.72;100.00;52427.38;4996741;28;20009;-69
2023/06/29 07:58:27;;;;;;;;;;;;;;;-140.72;100.00;52427.38;4974781;28;19918;-69
2023/06/29 08:00:52;;;;;;;;;;;;;;;-140.72;100.00;52405.06;4985206;28;19925;-70
2023/06/29 08:03:17;;;;;;;;;;;;;;;-140.72;100.00;52415.22;4992734;28;19960;-69
2023/06/29 08:05:42;;;;;;;;;;;;;;;-140.72;100.00;52392.88;4994986;28;19918;-69
2023/06/29 08:08:08;;;;;;;;;;;;;;;-140.72;100.00;52419.28;4974535;28;19929;-69
2023/06/29 08:10:33;;;;;;;;;;;;;;;-140.72;100.00;52407.09;4975095;28;20000;-70
2023/06/29 08:12:59;;;;;;;;;;;;;;;-140.72;100.00;52415.22;4983461;28;19957;-70
2023/06/29 08:15:24;;;;;;;;;;;;;;;-140.72;100.00;52374.63;4991492;28;19934;-70
2023/06/29 08:17:49;;;;;;;;;;;;;;;-140.72;100.00;52423.31;4992242;28;20008;-70
2023/06/29 08:20:14;;;;;;;;;;;;;;;-140.72;100.00;52401.00;4991780;28;19921;-69
2023/06/29 08:22:40;;;;;;;;;;;;;;;-140.72;100.00;52388.84;4991989;28;19918;-69
2023/06/29 08:25:06;;;;;;;;;;;;;;;-140.72;100.00;52415.22;4991704;28;20276;-69
2023/06/29 08:27:31;;;;;;;;;;;;;;;-140.72;100.00;52447.69;4991071;28;19918;-69
2023/06/29 08:29:56;;;;;;;;;;;;;;;-140.72;100.00;52423.31;4989981;28;19967;-69
2023/06/29 08:32:21;;;;;;;;;;;;;;;-140.72;100.00;52382.75;4982169;28;19918;-69
2023/06/29 08:34:47;;;;;;;;;;;;;;;-140.72;100.00;52425.34;4990297;28;20357;-69
2023/06/29 08:37:12;;;;;;;;;;;;;;;-140.72;100.00;52439.56;4980968;28;19922;-68
2023/06/29 08:39:37;;;;;;;;;;;;;;;-140.72;100.00;52407.09;4977993;28;20372;-69
2023/06/29 08:42:03;;;;;;;;;;;;;;;-140.72;100.00;52423.31;4989000;28;19922;-68
2023/06/29 08:44:28;;;;;;;;;;;;;;;-140.72;100.00;52390.84;4983204;28;20367;-68
2023/06/29 08:46:55;;;;;;;;;;;;;;;-140.72;100.00;52451.72;4984772;28;19918;-68
2023/06/29 08:49:22;;;;;;;;;;;;;;;-140.72;100.00;52451.72;4985761;28;20415;-69
2023/06/29 08:51:49;;;;;;;;;;;;;;;-140.72;100.00;52415.22;4993771;28;20383;-70
2023/06/29 08:54:15;;;;;;;;;;;;;;;-140.72;100.00;52348.25;4985025;28;19922;-69
2023/06/29 08:56:41;;;;;;;;;;;;;;;-140.72;100.00;52439.56;4990302;28;19918;-69
2023/06/29 08:59:06;;;;;;;;;;;;;;;-140.72;100.00;52407.09;4983601;28;19957;-70
2023/06/29 09:01:32;;;;;;;;;;;;;;;-140.72;100.00;52431.44;4994703;28;20008;-69
2023/06/29 09:03:58;;;;;;;;;;;;;;;-140.72;100.00;52409.13;4972033;28;20013;-69
2023/06/29 09:06:23;;;;;;;;;;;;;;;-140.72;100.00;52378.69;4994821;28;20021;-69
2023/06/29 09:08:49;;;;;;;;;;;;;;;-140.72;100.00;52388.84;4994008;28;19969;-69
2023/06/29 09:11:14;;;;;;;;;;;;;;;-140.72;100.00;52401.00;4989040;28;19925;-70
2023/06/29 09:13:39;;;;;;;;;;;;;;;-140.72;100.00;52392.88;4994796;28;19944;-70
2023/06/29 09:16:05;;;;;;;;;;;;;;;-140.72;100.00;52411.16;4986900;28;19922;-70
2023/06/29 09:18:32;;;;;;;;;;;;;;;-140.72;100.00;52392.88;4989503;28;19940;-69
2023/06/29 09:20:57;;;;;;;;;;;;;;;-140.72;100.00;52435.50;4994730;28;19924;-69
2023/06/29 09:23:25;;;;;;;;;;;;;;;-140.72;100.00;52411.16;4993017;28;19917;-69
2023/06/29 09:25:53;;;;;;;;;;;;;;;-140.72;100.00;52398.97;4994684;28;19921;-70
2023/06/29 09:28:18;;;;;;;;;;;;;;;-140.72;100.00;52344.19;4993109;28;20025;-70
2023/06/29 09:30:43;;;;;;;;;;;;;;;-140.72;100.00;52388.84;5001863;28;20073;-69
2023/06/29 09:33:12;;;;;;;;;;;;;;;-140.72;100.00;52394.91;4982276;28;19949;-69
2023/06/29 09:35:39;;;;;;;;;;;;;;;-140.72;100.00;52358.41;4994988;28;19917;-69
2023/06/29 09:38:04;;;;;;;;;;;;;;;-140.72;100.00;52299.56;4993980;28;20656;-69
2023/06/29 09:40:30;;;;;;;;;;;;;;;-140.72;49.71;52323.91;4997579;28;20360;-69
2023/06/29 09:42:55;;;;;;;;;;;;;;;-140.72;31.98;52346.22;4995593;28;19926;-69
2023/06/29 09:45:21;;;;;;;;;;;;;;;-140.72;12.46;52313.75;4981891;28;20336;-69
2023/06/29 09:47:49;;;;;;;;;;;;;;;-140.72;1.49;52325.94;4993125;28;19925;-70
2023/06/29 09:50:19;;;;;;;;;;;;;;;-140.72;0.00;52311.72;4990163;28;19995;-70
2023/06/29 09:52:48;;;;;;;;;;;;;;;-140.72;0.00;52307.66;4974998;28;19925;-70
2023/06/29 09:55:14;;;;;;;;;;;;;;;-140.72;0.00;52244.78;4993693;28;19921;-70
2023/06/29 09:57:45;;;;;;;;;;;;;;;-140.72;0.00;52275.19;4968772;28;19922;-69
2023/06/29 10:00:11;;;;;;;;;;;;;;;-140.72;0.00;52240.72;4992385;28;19925;-71
2023/06/29 10:02:37;;;;;;;;;;;;;;;-140.72;0.00;52240.72;4988640;28;19968;-70
2023/06/29 10:05:02;;;;;;;;;;;;;;;-140.72;0.00;52267.09;4989520;28;20376;-69
2023/06/29 10:07:28;;;;;;;;;;;;;;;-140.72;0.00;52187.97;4991814;28;19977;-69
2023/06/29 10:09:54;;;;;;;;;;;;;;;-140.72;0.00;52226.50;4992611;28;19918;-69
2023/06/29 10:12:22;;;;;;;;;;;;;;;-140.72;0.00;52263.03;4989637;28;20269;-69
2023/06/29 10:14:48;;;;;;;;;;;;;;;-140.72;0.00;52317.81;4985428;28;20020;-69
2023/06/29 10:17:21;;;;;;;;;;;;;;;-140.72;0.00;52346.22;4993409;28;19918;-70
2023/06/29 10:19:48;;;;;;;;;;;;;;;-140.72;0.00;52332.03;4993581;28;19918;-69
2023/06/29 10:22:15;;;;;;;;;;;;;;;-140.72;0.00;52370.56;4974494;28;19918;-69
2023/06/29 10:24:42;;;;;;;;;;;;;;;-140.72;0.00;52376.66;4993312;28;20024;-69
2023/06/29 10:27:08;;;;;;;;;;;;;;;-140.72;0.00;52388.84;4975632;28;20008;-69
2023/06/29 10:29:46;;;;;;;;;;;;;;;-140.72;0.00;52390.84;4993811;28;20017;-69
2023/06/29 10:32:33;;;;;;;;;;;;;;;-140.72;0.00;52398.97;4987064;28;19918;-69
2023/06/29 10:35:01;;;;;;;;;;;;;;;-140.72;0.00;52350.28;4973509;28;19926;-69
2023/06/29 10:37:30;;;;;;;;;;;;;;;-140.72;0.00;52342.16;4987714;28;19925;-69
2023/06/29 10:39:56;;;;;;;;;;;;;;;-140.72;0.00;52311.72;4984221;28;19961;-69
2023/06/29 10:42:21;;;;;;;;;;;;;;;-140.72;0.00;52250.84;4992770;28;19918;-69
2023/06/29 10:44:47;;;;;;;;;;;;;;;-140.72;0.00;52244.78;4978754;28;19925;-69
2023/06/29 10:47:28;;;;;;;;;;;;;;;-140.72;0.00;52208.25;4982615;28;19918;-70
2023/06/29 10:50:13;;;;;;;;;;;;;;;-140.72;0.00;52200.13;4974888;28;19918;-70
2023/06/29 10:52:39;;;;;;;;;;;;;;;-140.72;0.00;52159.56;4993688;28;19922;-69
2023/06/29 10:55:22;;;;;;;;;;;;;;;-140.72;0.00;52212.31;4959537;28;20013;-70
2023/06/29 10:57:50;;;;;;;;;;;;;;;-140.72;0.00;52202.16;4986909;28;20271;-69
2023/06/29 11:00:16;;;;;;;;;;;;;;;-140.72;0.00;52254.91;4992409;28;20007;-69
2023/06/29 11:02:41;;;;;;;;;;;;;;;-140.72;0.00;52230.56;4975023;28;19992;-69
2023/06/29 11:05:10;;;;;;;;;;;;;;;-140.72;0.00;52232.59;4989666;28;20012;-68
2023/06/29 11:07:37;;;;;;;;;;;;;;;-140.72;0.00;52244.78;4987356;28;20023;-69
2023/06/29 11:10:03;;;;;;;;;;;;;;;-140.72;0.00;52252.88;4988692;28;19918;-68
2023/06/29 11:12:28;;;;;;;;;;;;;;;-140.72;0.00;52246.78;4965276;28;20384;-69
2023/06/29 11:14:57;;;;;;;;;;;;;;;-140.72;0.00;52297.53;4984151;28;19925;-69
2023/06/29 11:17:25;;;;;;;;;;;;;;;-140.72;0.00;52216.34;4990795;28;19918;-69
2023/06/29 11:19:50;;;;;;;;;;;;;;;-140.72;0.00;52123.03;4992027;28;20013;-69
2023/06/29 11:22:18;;;;;;;;;;;;;;;-140.72;0.00;52116.94;4987100;28;20324;-69
2023/06/29 11:24:44;;;;;;;;;;;;;;;-140.72;0.00;52102.75;4993192;28;19918;-69
2023/06/29 11:27:09;;;;;;;;;;;;;;;-140.72;0.00;52208.25;4982715;28;19999;-69
2023/06/29 11:29:34;;;;;;;;;;;;;;;-140.72;0.00;52248.81;4991540;28;20288;-69
2023/06/29 11:32:00;;;;;;;;;;;;;;;-140.72;0.00;52230.56;4987273;28;20000;-69
2023/06/29 11:34:26;;;;;;;;;;;;;;;-140.72;0.00;52238.69;4991406;28;19935;-69
2023/06/29 11:36:51;;;;;;;;;;;;;;;-140.72;0.00;52248.81;4995062;28;19918;-69
2023/06/29 11:39:17;;;;;;;;;;;;;;;-140.72;0.00;52261.00;4993522;28;19925;-69
2023/06/29 11:41:43;;;;;;;;;;;;;;;-140.72;0.00;52238.69;4990464;28;20356;-69
2023/06/29 11:44:08;;;;;;;;;;;;;;;-140.72;0.00;52305.63;4985134;28;19932;-69
2023/06/29 11:46:34;;;;;;;;;;;;;;;-140.72;0.00;52323.91;4989866;28;20401;-69
2023/06/29 11:49:00;;;;;;;;;;;;;;;-140.72;0.00;52309.69;4979708;28;19929;-69
2023/06/29 11:51:29;;;;;;;;;;;;;;;-140.72;0.00;52382.75;4992655;28;19924;-69
2023/06/29 11:53:57;;;;;;;;;;;;;;;-140.72;0.00;52344.19;4981454;28;19922;-69
2023/06/29 11:56:26;;;;;;;;;;;;;;;-140.72;0.00;52368.53;4973001;28;20010;-69
2023/06/29 11:58:52;;;;;;;;;;;;;;;-140.72;0.00;52366.50;4988304;28;20001;-69
2023/06/29 12:01:17;;;;;;;;;;;;;;;-140.72;0.00;52356.38;4990135;28;20009;-69
2023/06/29 12:03:42;;;;;;;;;;;;;;;-140.72;0.00;52325.94;4986798;28;19918;-69
2023/06/29 12:06:08;;;;;;;;;;;;;;;-140.72;0.00;52299.56;4987280;28;19946;-69
2023/06/29 12:08:39;;;;;;;;;;;;;;;-140.72;0.00;52317.81;4990807;28;20295;-70
2023/06/29 12:11:06;;;;;;;;;;;;;;;-140.72;0.00;52261.00;4991294;28;19924;-69
2023/06/29 12:13:31;;;;;;;;;;;;;;;-140.72;0.00;52281.28;4982178;28;19964;-69
2023/06/29 12:16:00;;;;;;;;;;;;;;;-140.72;0.00;52252.88;4972679;28;20362;-69
2023/06/29 12:18:27;;;;;;;;;;;;;;;-140.72;0.00;52303.59;4991214;28;20295;-70